createdAt,value
2023-03-26T00:00:20.246Z,99.90
2023-03-26T00:11:09.090Z,99.90
2023-03-26T00:13:36.434Z,99.90
2023-03-26T00:16:03.782Z,99.90
2023-03-26T00:21:14.789Z,99.90
2023-03-26T00:23:41.935Z,99.90
2023-03-26T00:26:13.049Z,99.90
2023-03-26T00:28:41.616Z,99.90
2023-03-26T00:31:13.137Z,99.90
2023-03-26T00:33:40.929Z,99.90
2023-03-26T00:36:11.464Z,99.90
2023-03-26T00:38:41.662Z,99.90
2023-03-26T00:44:06.105Z,99.90
2023-03-26T00:46:33.116Z,99.90
2023-03-26T00:54:17.561Z,99.90
2023-03-26T00:56:45.272Z,99.90
2023-03-26T00:59:12.338Z,99.90
2023-03-26T01:04:31.240Z,99.90
2023-03-26T01:07:00.830Z,99.90
2023-03-26T01:09:34.760Z,99.90
2023-03-26T01:12:03.718Z,99.90
2023-03-26T01:14:30.789Z,99.90
2023-03-26T01:22:38.184Z,99.90
2023-03-26T01:25:05.680Z,99.90
2023-03-26T01:27:52.192Z,99.90
2023-03-26T01:30:35.492Z,99.90
2023-03-26T01:33:26.542Z,99.90
2023-03-26T01:36:01.841Z,99.90
2023-03-26T01:38:38.350Z,99.90
2023-03-26T01:41:32.315Z,99.90
2023-03-26T01:44:17.269Z,99.90
2023-03-26T01:46:44.407Z,99.90
2023-03-26T01:49:13.650Z,99.90
2023-03-26T01:51:42.333Z,99.90
2023-03-26T01:54:20.029Z,99.90
2023-03-26T01:57:06.282Z,99.90
2023-03-26T01:59:51.087Z,99.90
2023-03-26T02:02:44.456Z,99.90
2023-03-26T02:05:38.112Z,99.90
2023-03-26T02:08:12.067Z,99.90
2023-03-26T02:10:44.623Z,99.90
2023-03-26T02:13:12.408Z,99.90
2023-03-26T02:15:54.887Z,99.90
2023-03-26T02:18:24.765Z,99.90
2023-03-26T02:20:55.950Z,99.90
2023-03-26T02:23:22.966Z,99.90
2023-03-26T02:25:49.978Z,99.90
2023-03-26T02:28:17.245Z,99.90
2023-03-26T02:30:46.046Z,99.90
2023-03-26T02:33:15.489Z,99.90
2023-03-26T02:35:46.268Z,99.90
2023-03-26T02:38:14.817Z,99.90
2023-03-26T02:40:42.241Z,99.90
2023-03-26T02:43:09.330Z,99.90
2023-03-26T02:45:36.393Z,99.90
2023-03-26T02:48:03.632Z,99.90
2023-03-26T02:50:32.875Z,99.90
2023-03-26T02:52:59.947Z,99.90
2023-03-26T02:55:27.531Z,99.90
2023-03-26T03:06:00.164Z,99.90
2023-03-26T03:08:28.561Z,99.90
2023-03-26T03:11:00.086Z,99.90
2023-03-26T03:13:27.594Z,99.90
2023-03-26T03:18:43.077Z,99.90
2023-03-26T03:21:10.094Z,99.90
2023-03-26T03:23:37.051Z,99.90
2023-03-26T03:26:04.164Z,99.90
2023-03-26T03:28:31.362Z,99.90
2023-03-26T03:30:59.618Z,99.90
2023-03-26T03:33:26.754Z,99.90
2023-03-26T03:35:53.927Z,99.90
2023-03-26T03:40:56.700Z,99.90
2023-03-26T03:43:25.475Z,99.90
2023-03-26T03:45:52.734Z,99.90
2023-03-26T03:48:19.946Z,99.90
2023-03-26T03:50:47.066Z,99.90
2023-03-26T03:53:16.151Z,99.90
2023-03-26T03:55:43.128Z,99.90
2023-03-26T04:03:39.040Z,99.90
2023-03-26T04:06:11.248Z,99.90
2023-03-26T04:08:38.250Z,99.90
2023-03-26T04:11:05.898Z,99.90
2023-03-26T04:13:32.974Z,99.90
2023-03-26T04:16:00.680Z,99.90
2023-03-26T04:18:27.950Z,99.90
2023-03-26T04:20:55.877Z,99.90
2023-03-26T04:23:23.459Z,99.90
2023-03-26T04:25:54.170Z,99.90
2023-03-26T04:28:30.548Z,99.90
2023-03-26T04:31:00.828Z,99.90
2023-03-26T04:33:31.992Z,99.90
2023-03-26T04:36:03.073Z,99.90
2023-03-26T04:38:33.714Z,99.90
2023-03-26T04:41:04.637Z,99.90
2023-03-26T04:43:35.707Z,99.90
2023-03-26T04:46:05.739Z,99.90
2023-03-26T04:48:32.915Z,99.90
2023-03-26T04:50:59.867Z,99.90
2023-03-26T04:53:26.866Z,99.90
2023-03-26T04:56:03.286Z,99.90
2023-03-26T04:58:34.114Z,99.90
2023-03-26T05:01:10.436Z,99.90
2023-03-26T05:03:39.761Z,99.90
2023-03-26T05:06:07.145Z,99.90
2023-03-26T05:08:36.576Z,99.90
2023-03-26T05:11:03.600Z,99.90
2023-03-26T05:13:30.836Z,99.90
2023-03-26T05:15:57.862Z,99.90
2023-03-26T05:18:24.923Z,99.90
2023-03-26T05:23:26.458Z,99.90
2023-03-26T05:25:53.346Z,99.90
2023-03-26T05:28:23.391Z,99.90
2023-03-26T05:30:51.186Z,99.90
2023-03-26T05:33:18.164Z,99.90
2023-03-26T05:35:45.670Z,99.90
2023-03-26T05:38:12.686Z,99.90
2023-03-26T05:40:39.675Z,99.90
2023-03-26T05:43:06.862Z,99.90
2023-03-26T05:45:33.875Z,99.90
2023-03-26T05:48:00.885Z,99.90
2023-03-26T05:50:28.190Z,99.90
2023-03-26T05:52:55.183Z,99.90
2023-03-26T05:55:22.234Z,99.90
2023-03-26T05:57:49.458Z,99.90
2023-03-26T06:00:16.746Z,99.90
2023-03-26T06:02:44.424Z,99.90
2023-03-26T06:05:12.848Z,99.90
2023-03-26T06:07:39.834Z,99.90
2023-03-26T06:10:07.376Z,99.90
2023-03-26T06:12:34.316Z,99.90
2023-03-26T06:15:01.186Z,99.90
2023-03-26T06:17:32.531Z,99.90
2023-03-26T06:19:59.539Z,99.90
2023-03-26T06:22:26.485Z,99.90
2023-03-26T06:24:53.555Z,99.90
2023-03-26T06:27:20.744Z,99.90
2023-03-26T06:29:48.369Z,99.90
2023-03-26T06:32:20.162Z,99.90
2023-03-26T06:37:31.028Z,99.90
2023-03-26T06:39:58.755Z,99.90
2023-03-26T06:43:07.183Z,99.90
2023-03-26T06:45:15.572Z,99.90
2023-03-26T06:47:47.546Z,99.90
2023-03-26T06:50:20.571Z,99.90
2023-03-26T06:52:48.478Z,99.90
2023-03-26T06:55:15.584Z,99.90
2023-03-26T06:57:45.434Z,99.90
2023-03-26T07:00:13.647Z,99.90
2023-03-26T07:02:40.628Z,99.90
2023-03-26T07:05:07.824Z,99.90
2023-03-26T07:07:35.992Z,99.90
2023-03-26T07:10:13.256Z,99.90
2023-03-26T07:15:08.631Z,99.90
2023-03-26T07:17:35.823Z,99.90
2023-03-26T07:20:03.466Z,99.90
2023-03-26T07:22:30.678Z,99.90
2023-03-26T07:24:57.937Z,99.90
2023-03-26T07:27:49.421Z,99.90
2023-03-26T07:33:19.786Z,99.90
2023-03-26T07:36:21.740Z,99.90
2023-03-26T07:39:07.619Z,99.90
2023-03-26T07:41:54.788Z,99.90
2023-03-26T07:45:06.010Z,99.90
2023-03-26T07:47:34.130Z,99.90
2023-03-26T07:50:01.309Z,99.90
2023-03-26T07:52:28.772Z,99.90
2023-03-26T07:54:56.427Z,99.90
2023-03-26T07:57:35.185Z,99.90
2023-03-26T08:00:23.175Z,99.90
2023-03-26T08:02:56.338Z,99.90
2023-03-26T08:05:42.006Z,99.90
2023-03-26T08:08:25.543Z,99.90
2023-03-26T08:11:22.099Z,99.90
2023-03-26T08:13:52.288Z,99.90
2023-03-26T08:16:37.181Z,99.90
2023-03-26T08:19:33.516Z,99.90
2023-03-26T08:22:27.369Z,99.90
2023-03-26T08:25:03.451Z,99.90
2023-03-26T08:27:57.636Z,99.90
2023-03-26T08:30:26.250Z,99.90
2023-03-26T08:33:01.016Z,99.90
2023-03-26T08:35:28.351Z,99.90
2023-03-26T08:37:55.448Z,99.90
2023-03-26T08:40:57.647Z,99.90
2023-03-26T08:43:33.512Z,99.90
2023-03-26T08:46:22.477Z,99.90
2023-03-26T08:48:58.591Z,99.90
2023-03-26T08:51:52.081Z,99.90
2023-03-26T08:54:31.263Z,99.90
2023-03-26T08:57:10.607Z,99.90
2023-03-26T09:00:17.966Z,99.90
2023-03-26T09:02:49.939Z,99.90
2023-03-26T09:05:36.337Z,99.90
2023-03-26T09:08:12.338Z,99.90
2023-03-26T09:10:54.578Z,99.90
2023-03-26T09:13:30.362Z,99.90
2023-03-26T09:16:16.463Z,99.90
2023-03-26T09:18:55.499Z,99.90
2023-03-26T09:21:28.252Z,99.90
2023-03-26T09:24:19.842Z,99.20
2023-03-26T09:26:51.584Z,99.90
2023-03-26T09:29:49.268Z,99.60
2023-03-26T09:32:25.148Z,99.90
2023-03-26T09:35:14.977Z,99.90
2023-03-26T09:37:58.512Z,99.90
2023-03-26T09:40:53.126Z,97.80
2023-03-26T09:43:58.182Z,99.50
2023-03-26T09:46:45.538Z,99.90
2023-03-26T09:49:33.810Z,98.50
2023-03-26T09:52:36.220Z,99.70
2023-03-26T09:55:08.846Z,99.90
2023-03-26T09:57:59.364Z,99.90
2023-03-26T10:00:41.453Z,99.70
2023-03-26T10:03:14.332Z,99.90
2023-03-26T10:05:52.846Z,99.60
2023-03-26T10:08:32.808Z,97.10
2023-03-26T10:11:14.587Z,99.50
2023-03-26T10:13:59.616Z,99.90
2023-03-26T10:16:50.193Z,95.50
2023-03-26T10:19:26.344Z,98.50
2023-03-26T10:22:12.060Z,93.80
2023-03-26T10:25:06.747Z,96.50
2023-03-26T10:27:56.123Z,95.60
2023-03-26T10:30:35.307Z,98.00
2023-03-26T10:33:52.810Z,97.30
2023-03-26T10:36:27.031Z,99.70
2023-03-26T10:39:36.278Z,99.90
2023-03-26T10:42:11.613Z,95.50
2023-03-26T10:44:56.927Z,96.10
2023-03-26T10:47:31.781Z,95.60
2023-03-26T10:50:44.029Z,96.30
2023-03-26T10:53:44.239Z,96.00
2023-03-26T10:56:33.092Z,97.10
2023-03-26T10:59:08.363Z,96.00
2023-03-26T11:01:50.382Z,96.80
2023-03-26T11:04:23.299Z,95.10
2023-03-26T11:06:59.678Z,94.70
2023-03-26T11:09:47.632Z,91.00
2023-03-26T11:12:26.083Z,88.20
2023-03-26T11:15:00.146Z,86.30
2023-03-26T11:18:25.438Z,90.50
2023-03-26T11:21:19.899Z,90.50
2023-03-26T11:24:05.348Z,87.70
2023-03-26T11:26:52.958Z,84.60
2023-03-26T11:29:32.690Z,84.20
2023-03-26T11:32:24.636Z,85.10
2023-03-26T11:35:39.452Z,88.80
2023-03-26T11:38:15.426Z,82.20
2023-03-26T11:40:43.694Z,79.90
2023-03-26T11:43:12.239Z,81.90
2023-03-26T11:45:42.276Z,82.40
2023-03-26T11:48:14.920Z,78.80
2023-03-26T11:50:46.640Z,77.60
2023-03-26T11:53:14.853Z,80.50
2023-03-26T11:55:44.651Z,80.20
2023-03-26T11:58:36.371Z,77.20
2023-03-26T12:01:04.963Z,76.80
2023-03-26T12:03:31.988Z,79.80
2023-03-26T12:05:59.844Z,78.80
2023-03-26T12:08:38.936Z,77.30
2023-03-26T12:11:11.007Z,78.90
2023-03-26T12:13:39.346Z,75.40
2023-03-26T12:16:20.042Z,77.10
2023-03-26T12:18:57.397Z,79.40
2023-03-26T12:21:24.340Z,73.00
2023-03-26T12:23:56.293Z,73.80
2023-03-26T12:26:39.811Z,68.10
2023-03-26T12:29:25.415Z,69.20
2023-03-26T12:32:03.140Z,69.40
2023-03-26T12:34:36.977Z,70.30
2023-03-26T12:37:05.333Z,73.40
2023-03-26T12:40:09.045Z,72.10
2023-03-26T12:44:44.261Z,70.30
2023-03-26T12:45:37.803Z,68.30
2023-03-26T12:48:05.260Z,70.00
2023-03-26T12:50:57.450Z,73.30
2023-03-26T12:53:42.448Z,73.10
2023-03-26T12:56:09.594Z,73.50
2023-03-26T12:58:51.444Z,73.00
2023-03-26T13:01:27.716Z,69.00
2023-03-26T13:04:16.229Z,67.50
2023-03-26T13:07:01.735Z,65.60
2023-03-26T13:09:38.265Z,66.60
2023-03-26T13:12:50.176Z,61.50
2023-03-26T13:15:36.876Z,63.90
2023-03-26T13:18:07.877Z,67.00
2023-03-26T13:20:49.699Z,68.70
2023-03-26T13:23:37.967Z,68.70
2023-03-26T13:26:14.310Z,72.70
2023-03-26T13:28:53.228Z,72.10
2023-03-26T13:31:29.392Z,73.40
2023-03-26T13:33:59.707Z,74.70
2023-03-26T13:36:31.038Z,75.40
2023-03-26T13:39:26.421Z,72.30
2023-03-26T13:42:08.790Z,71.70
2023-03-26T13:44:43.167Z,73.40
2023-03-26T13:47:22.112Z,71.10
2023-03-26T13:49:53.993Z,74.90
2023-03-26T13:52:35.892Z,74.20
2023-03-26T13:55:27.806Z,76.40
2023-03-26T13:58:25.719Z,78.40
2023-03-26T14:01:12.510Z,81.00
2023-03-26T14:03:58.918Z,82.10
2023-03-26T14:06:42.235Z,80.30
2023-03-26T14:09:37.066Z,81.30
2023-03-26T14:12:22.039Z,84.00
2023-03-26T14:15:00.033Z,88.70
2023-03-26T14:17:41.652Z,86.40
2023-03-26T14:20:32.109Z,89.00
2023-03-26T14:23:04.701Z,80.60
2023-03-26T14:25:46.783Z,80.50
2023-03-26T14:28:36.478Z,80.20
2023-03-26T14:31:19.548Z,81.50
2023-03-26T14:33:55.606Z,78.50
2023-03-26T14:36:46.786Z,78.30
2023-03-26T14:39:35.053Z,78.80
2023-03-26T14:42:03.366Z,80.20
2023-03-26T14:44:47.952Z,78.10
2023-03-26T14:47:20.700Z,77.90
2023-03-26T14:50:20.314Z,87.70
2023-03-26T14:53:00.830Z,96.30
2023-03-26T14:55:48.608Z,98.30
2023-03-26T14:58:41.486Z,99.90
2023-03-26T15:01:14.988Z,99.90
2023-03-26T15:03:41.917Z,99.90
2023-03-26T15:06:26.607Z,99.90
2023-03-26T15:08:59.661Z,99.90
2023-03-26T15:12:12.276Z,99.90
2023-03-26T15:15:13.578Z,99.90
2023-03-26T15:18:19.499Z,99.90
2023-03-26T15:21:23.932Z,99.90
2023-03-26T15:24:09.737Z,99.90
2023-03-26T15:27:09.095Z,99.90
2023-03-26T15:30:05.739Z,99.90
2023-03-26T15:33:12.066Z,99.90
2023-03-26T15:36:09.305Z,99.90
2023-03-26T15:38:48.502Z,99.90
2023-03-26T15:41:32.724Z,99.90
2023-03-26T15:46:39.078Z,99.90
2023-03-26T15:49:19.986Z,99.90
2023-03-26T15:52:25.591Z,99.90
2023-03-26T15:55:18.830Z,99.90
2023-03-26T15:58:06.636Z,99.90
2023-03-26T16:01:02.886Z,99.90
2023-03-26T16:04:02.515Z,99.90
2023-03-26T16:06:41.663Z,99.90
2023-03-26T16:12:55.495Z,99.90
2023-03-26T16:15:32.690Z,99.90
2023-03-26T16:18:12.991Z,99.90
2023-03-26T16:20:51.032Z,99.90
2023-03-26T16:23:56.535Z,99.90
2023-03-26T16:26:26.819Z,99.90
2023-03-26T16:28:53.762Z,99.90
2023-03-26T16:31:38.732Z,99.90
2023-03-26T16:44:22.801Z,99.90
2023-03-26T16:47:26.768Z,99.90
2023-03-26T16:50:10.830Z,99.90
2023-03-26T16:53:15.763Z,99.90
2023-03-26T16:56:26.228Z,99.90
2023-03-26T16:58:54.415Z,99.90
2023-03-26T17:01:27.438Z,99.90
2023-03-26T17:04:01.955Z,99.90
2023-03-26T17:06:54.248Z,99.90
2023-03-26T17:12:53.686Z,99.90
2023-03-26T17:15:36.699Z,99.90
2023-03-26T17:18:10.966Z,99.90
2023-03-26T17:21:17.283Z,99.90
2023-03-26T17:23:56.469Z,99.90
2023-03-26T17:26:38.802Z,99.90
2023-03-26T17:29:14.831Z,99.90
2023-03-26T17:31:54.435Z,99.90
2023-03-26T17:34:46.834Z,99.90
2023-03-26T17:37:17.010Z,99.90
2023-03-26T17:39:45.605Z,99.90
2023-03-26T17:42:35.658Z,99.90
2023-03-26T17:45:03.713Z,99.90
2023-03-26T17:47:45.751Z,99.90
2023-03-26T17:53:22.428Z,99.90
2023-03-26T17:55:51.202Z,99.90
2023-03-26T17:58:27.142Z,99.90
2023-03-26T18:03:51.199Z,99.90
2023-03-26T18:06:54.105Z,99.90
2023-03-26T18:09:42.771Z,99.90
2023-03-26T18:12:35.148Z,99.90
2023-03-26T18:15:15.431Z,99.90
2023-03-26T18:17:44.935Z,99.90
2023-03-26T18:20:24.703Z,99.90
2023-03-26T18:22:51.992Z,99.90
2023-03-26T18:25:29.373Z,99.90
2023-03-26T18:27:56.523Z,99.90
2023-03-26T18:30:24.742Z,99.90
2023-03-26T18:33:02.087Z,99.90
2023-03-26T18:36:04.768Z,99.90
2023-03-26T18:38:36.081Z,99.90
2023-03-26T18:41:06.662Z,99.90
2023-03-26T18:43:35.735Z,99.90
2023-03-26T18:46:14.937Z,99.90
2023-03-26T18:48:41.990Z,99.90
2023-03-26T18:51:09.095Z,99.90
2023-03-26T18:53:48.838Z,99.90
2023-03-26T18:56:42.095Z,99.90
2023-03-26T18:59:28.264Z,99.90
2023-03-26T19:02:00.613Z,99.90
2023-03-26T19:04:27.774Z,99.90
2023-03-26T19:06:55.232Z,99.90
2023-03-26T19:09:31.695Z,99.90
2023-03-26T19:12:08.287Z,99.90
2023-03-26T19:15:11.276Z,99.90
2023-03-26T19:17:49.385Z,99.90
2023-03-26T19:20:20.302Z,99.90
2023-03-26T19:22:47.648Z,99.90
2023-03-26T19:25:30.036Z,99.90
2023-03-26T19:27:57.180Z,99.90
2023-03-26T19:30:31.014Z,99.90
2023-03-26T19:33:13.105Z,99.90
2023-03-26T19:35:41.296Z,99.90
2023-03-26T19:38:20.579Z,99.90
2023-03-26T19:40:47.970Z,99.90
2023-03-26T19:43:14.971Z,99.90
2023-03-26T19:46:00.564Z,99.90
2023-03-26T19:48:45.292Z,99.90
2023-03-26T19:51:38.511Z,99.90
2023-03-26T19:54:14.960Z,99.90
2023-03-26T19:56:44.123Z,99.90
2023-03-26T19:59:11.280Z,99.90
2023-03-26T20:01:38.730Z,99.90
2023-03-26T20:04:06.783Z,99.90
2023-03-26T20:06:43.216Z,99.90
2023-03-26T20:09:12.278Z,99.90
2023-03-26T20:11:42.090Z,99.90
2023-03-26T20:14:16.912Z,99.90
2023-03-26T20:16:47.049Z,99.90
2023-03-26T20:19:15.680Z,99.90
2023-03-26T20:21:43.206Z,99.90
2023-03-26T20:24:31.758Z,99.90
2023-03-26T20:27:02.584Z,99.90
2023-03-26T20:29:29.746Z,99.90
2023-03-26T20:31:58.572Z,99.90
2023-03-26T20:34:28.484Z,99.90
2023-03-26T20:37:01.194Z,99.90
2023-03-26T20:39:30.418Z,99.90
2023-03-26T20:41:57.952Z,99.90
2023-03-26T20:44:26.921Z,99.90
2023-03-26T20:46:54.062Z,99.90
2023-03-26T20:49:22.587Z,99.90
2023-03-26T20:51:59.498Z,99.90
2023-03-26T20:54:30.505Z,99.90
2023-03-26T20:56:59.808Z,99.90
2023-03-26T20:59:27.957Z,99.90
2023-03-26T21:01:58.236Z,99.90
2023-03-26T21:04:29.817Z,99.90
2023-03-26T21:07:07.111Z,99.90
2023-03-26T21:09:48.240Z,99.90
2023-03-26T21:15:36.888Z,99.90
2023-03-26T21:18:12.224Z,99.90
2023-03-26T21:20:41.422Z,99.90
2023-03-26T21:23:19.204Z,99.90
2023-03-26T21:26:21.213Z,99.90
2023-03-26T21:28:52.466Z,99.90
2023-03-26T21:31:27.083Z,99.90
2023-03-26T21:33:55.369Z,99.90
2023-03-26T21:36:23.278Z,99.90
2023-03-26T21:38:50.778Z,99.90
2023-03-26T21:41:24.001Z,99.90
2023-03-26T21:43:51.603Z,99.90
2023-03-26T21:46:21.001Z,99.90
2023-03-26T21:48:49.687Z,99.90
2023-03-26T21:51:19.648Z,99.90
2023-03-26T21:53:47.178Z,99.90
2023-03-26T21:56:33.090Z,99.90
2023-03-26T21:59:16.754Z,99.90
2023-03-26T22:01:52.282Z,99.90
2023-03-26T22:04:19.564Z,99.90
2023-03-26T22:06:55.784Z,99.90
2023-03-26T22:09:36.462Z,99.90
2023-03-26T22:12:04.762Z,99.90
2023-03-26T22:14:31.833Z,99.90
2023-03-26T22:16:59.049Z,99.90
2023-03-26T22:19:30.151Z,99.90
2023-03-26T22:21:58.404Z,99.90
2023-03-26T22:24:25.504Z,99.90
2023-03-26T22:26:52.507Z,99.90
2023-03-26T22:29:19.878Z,99.90
2023-03-26T22:31:46.942Z,99.90
2023-03-26T22:34:17.894Z,99.90
2023-03-26T22:36:45.034Z,99.90
2023-03-26T22:41:56.849Z,99.90
2023-03-26T22:44:25.796Z,99.90
2023-03-26T22:46:54.636Z,99.90
2023-03-26T22:49:23.117Z,99.90
2023-03-26T22:51:51.041Z,99.90
2023-03-26T22:54:22.880Z,99.90
2023-03-26T22:56:52.524Z,99.90
2023-03-26T22:59:20.705Z,99.90
2023-03-26T23:01:47.688Z,99.90
2023-03-26T23:04:30.852Z,99.90
2023-03-26T23:06:59.267Z,99.90
2023-03-26T23:09:26.510Z,99.90
2023-03-26T23:11:53.642Z,99.90
2023-03-26T23:14:20.819Z,99.90
2023-03-26T23:16:48.625Z,99.90
2023-03-26T23:19:15.960Z,99.90
2023-03-26T23:21:42.979Z,99.90
2023-03-26T23:24:10.272Z,99.90
2023-03-26T23:26:50.513Z,99.90
2023-03-26T23:29:18.524Z,99.90
2023-03-26T23:31:48.289Z,99.90
2023-03-26T23:34:18.568Z,99.90
2023-03-26T23:36:45.863Z,99.90
2023-03-26T23:39:13.597Z,99.90
2023-03-26T23:41:40.682Z,99.90
2023-03-26T23:44:07.801Z,99.90
2023-03-26T23:46:34.913Z,99.90
2023-03-26T23:49:05.268Z,99.90
2023-03-26T23:51:32.738Z,99.90
2023-03-26T23:54:00.584Z,99.90
2023-03-26T23:56:27.972Z,99.90
2023-03-26T23:58:55.382Z,99.90
